Home > Products > Valid Products > TAF

000
FTUS44 KLUB 200700 AAA
TAFLBB
TAF AMD
KLBB 200724Z 2007/2106 16005KT 5SM BR OVC006
     FM201800 20009KT P6SM OVC010
     FM202100 22010KT P6SM SCT015
     FM210200 18008KT P6SM OVC010=



000
FTUS44 KLUB 200700 AAA
TAFLBB
TAF AMD
KLBB 200724Z 2007/2106 16005KT 5SM BR OVC006
     FM201800 20009KT P6SM OVC010
     FM202100 22010KT P6SM SCT015
     FM210200 18008KT P6SM OVC010=



000
FTUS44 KLUB 200500
TAFLBB
TAF
KLBB 200520Z 2006/2106 16005KT 6SM BR OVC012
     FM200900 19006KT 1/2SM FG OVC006
     FM201800 22010KT P6SM SCT010 BKN250
     FM210200 18008KT P6SM BKN015=



000
FTUS44 KLUB 200500
TAFCDS
TAF
KCDS 200520Z 2006/2106 16005KT P6SM OVC012
     FM200900 16004KT 5SM BR OVC005
     FM201800 17009KT P6SM BKN015 BKN250=



000
FTUS44 KLUB 200000 AAA
TAFLBB
TAF AMD
KLBB 200020Z 2000/2024 09006KT P6SM BKN012
     FM200300 13005KT 6SM BR OVC010
     FM200700 19006KT 3SM BR OVC006
     FM201800 22010KT P6SM SCT010 BKN250=



000
FTUS44 KLUB 200000 AAA
TAFCDS
TAF AMD
KCDS 200019Z 2000/2024 VRB06KT P6SM OVC015
     FM200600 16005KT 5SM BR OVC005
     FM201800 18010KT P6SM BKN015 BKN250=



000
FTUS44 KLUB 192300
TAFCDS
TAF
KCDS 192325Z 2000/2024 VRB06KT P6SM BKN015 BKN040
     FM200600 16005KT 5SM BR OVC005
     FM201800 18010KT P6SM BKN015 BKN250=



000
FTUS44 KLUB 192300
TAFLBB
TAF
KLBB 192325Z 2000/2024 VRB06KT P6SM SCT015
     FM200300 13005KT 6SM BR OVC010
     FM200700 19006KT 3SM BR OVC006
     FM201800 22010KT P6SM SCT010 BKN250=



000
FTUS44 KLUB 192200 AAC
TAFLBB
TAF AMD
KLBB 192220Z 1922/2018 VRB06KT 6SM BR OVC012
     FM200000 22006KT P6SM BKN015
     FM200400 11005KT 3SM BR OVC007
     FM201500 22010KT P6SM BKN250=



000
FTUS44 KLUB 192200 AAC
TAFCDS
TAF AMD
KCDS 192216Z 1922/2018 11005KT P6SM OVC012
     FM200300 15005KT 5SM BR OVC008=



000
FTUS44 KLUB 191900 AAB
TAFLBB
TAF AMD
KLBB 191938Z 1920/2018 VRB06KT 6SM BR OVC006
     FM192100 VRB06KT 6SM BR OVC012
     FM192300 22006KT P6SM FEW020
     FM200400 11005KT 6SM BR OVC007=



000
FTUS44 KLUB 191900 AAB
TAFLBB
TAF AMD
KLBB 191938Z 1920/2018 VRB06KT 6SM BR OVC006
     FM192100 VRB06KT 6SM BR OVC012
     FM192300 22006KT P6SM FEW020
     FM200400 11005KT 6SM BR OVC007=



000
FTUS44 KLUB 191900 AAB
TAFCDS
TAF AMD
KCDS 191938Z 1920/2018 12004KT 6SM BR OVC010
     FM192100 11005KT P6SM OVC012=



000
FTUS44 KLUB 191900 AAB
TAFCDS
TAF AMD
KCDS 191938Z 1920/2018 12004KT 6SM BR OVC010
     FM192100 11005KT P6SM OVC012=



000
FTUS44 KLUB 191800 AAA
TAFCDS
TAF AMD
KCDS 191832Z 1919/2018 12004KT 6SM BR OVC010
      TEMPO 1919/1921 OVC008
     FM192100 11005KT P6SM OVC012=



000
FTUS44 KLUB 191800 AAA
TAFLBB
TAF AMD
KLBB 191827Z 1918/2018 VRB06KT 1SM BR OVC006
     FM192100 VRB06KT 4SM BR OVC012
     FM192300 22006KT P6SM FEW020
     FM200400 11005KT 6SM BR OVC007=



000
FTUS44 KLUB 191700 CCA
TAFLBB
TAF COR
KLBB 191741Z 1918/2018 VRB06KT 1SM BR OVC009
     FM191900 VRB06KT 3SM BR OVC012
     FM192100 22006KT P6SM FEW020
     FM200400 11005KT 6SM BR OVC007=



000
FTUS44 KLUB 191700
TAFCDS
TAF
KCDS 191735Z 1918/2018 12004KT 6SM BR OVC009
     FM191900 11005KT P6SM OVC012=



000
FTUS44 KLUB 191700
TAFLBB
TAF
KLBB 191735Z 1918/2018 VRB06KT 3SM BR OVC009
     FM191900 VRB06KT P6SM OVC012
     FM192100 22006KT P6SM FEW020
     FM200400 11005KT 6SM BR OVC007=



000
FTUS44 KLUB 191700 AAA
TAFLBB
TAF AMD
KLBB 191721Z 1917/2012 VRB06KT 1SM BR OVC006
     FM191800 15006KT 3SM BR OVC009
     FM191900 20005KT P6SM OVC012
     FM192100 22006KT P6SM FEW020
     FM200400 11005KT 6SM BR OVC007=



000
FTUS44 KLUB 191600 AAE
TAFLBB
TAF AMD
KLBB 191624Z 1916/2012 13003KT 1/2SM FG OVC002
     FM191700 15006KT 3SM BR OVC005
     FM191800 20005KT P6SM OVC010
     FM192100 22006KT P6SM FEW020
     FM200400 11005KT 6SM BR OVC007=



000
FTUS44 KLUB 191600 AAD
TAFLBB
TAF AMD
KLBB 191606Z 1916/2012 13003KT 1/2SM FG OVC002
      TEMPO 1916/1917 1/4SM FG
     FM191700 15006KT 3SM BR OVC005
     FM191800 20005KT P6SM OVC010
     FM192100 22006KT P6SM FEW020
     FM200400 11005KT 6SM BR OVC007=



000
FTUS44 KLUB 191600 AAD
TAFLBB
TAF AMD
KLBB 191606Z 1916/2012 13003KT 1/2SM FG OVC002
      TEMPO 1916/1917 1/4SM FG
     FM191700 15006KT 3SM BR OVC005
     FM191800 20005KT P6SM OVC010
     FM192100 22006KT P6SM FEW020
     FM200400 11005KT 6SM BR OVC007=



000
FTUS44 KLUB 191500 AAA
TAFCDS
TAF AMD
KCDS 191539Z 1916/2012 09004KT 6SM BR OVC009
     FM191800 13005KT P6SM OVC012=



000
FTUS44 KLUB 191500 AAC
TAFLBB
TAF AMD
KLBB 191537Z 1916/2012 13003KT 1/2SM FG OVC002
     FM191700 15006KT 3SM BR OVC005
     FM191800 20005KT P6SM OVC010
     FM192100 22006KT P6SM FEW020
     FM200400 11005KT 6SM BR OVC007=



000
FTUS44 KLUB 191500 AAB
TAFLBB
TAF AMD
KLBB 191513Z 1915/2012 13003KT 6SM BR OVC002
      TEMPO 1915/1917 1/2SM FG
     FM191800 20005KT P6SM OVC010
     FM192100 22006KT P6SM FEW020
     FM200400 11005KT 6SM BR OVC007=



000
FTUS44 KLUB 191400 AAA
TAFLBB
TAF AMD
KLBB 191438Z 1915/2012 13003KT 6SM BR OVC004
      TEMPO 1915/1916 1/2SM FG
     FM191800 20005KT P6SM OVC010
     FM192100 22006KT P6SM FEW020
     FM200400 11005KT 6SM BR OVC007=



000
FTUS44 KLUB 191100
TAFCDS
TAF
KCDS 191135Z 1912/2012 06005KT 6SM -RA SCT005 OVC015
     FM191400 09004KT 3SM BR OVC005
     FM191800 13005KT P6SM OVC012=



000
FTUS44 KLUB 191100
TAFLBB
TAF
KLBB 191135Z 1912/2012 13003KT 6SM BR OVC004
     FM191800 20005KT P6SM OVC010
     FM192100 22006KT P6SM FEW020
     FM200400 11005KT 6SM BR OVC007=



000
FTUS44 KLUB 191000 AAB
TAFCDS
TAF AMD
KCDS 191037Z 1911/2006 04004KT 6SM -RA BR SCT005 OVC010
     FM191200 07004KT 5SM BR OVC005
     FM191800 13005KT P6SM OVC012=



000
FTUS44 KLUB 190700 AAA
TAFCDS
TAF AMD
KCDS 190703Z 1907/2006 09006KT 6SM -SHRA OVC015
     FM190900 08006KT 6SM BR OVC005
     FM191800 13005KT P6SM OVC012=



000
FTUS44 KLUB 190500
TAFCDS
TAF
KCDS 190520Z 1906/2006 09006KT P6SM OVC015
     FM190900 08006KT P6SM OVC005
     FM191800 13005KT P6SM OVC012=



000
FTUS44 KLUB 190500
TAFLBB
TAF
KLBB 190520Z 1906/2006 08008KT 6SM BR OVC006
      TEMPO 1908/1912 P6SM -SHRA
     FM191800 15007KT P6SM FEW010 SCT030=



000
FTUS44 KLUB 190300 AAA
TAFLBB
TAF AMD
KLBB 190323Z 1903/1924 08006KT P6SM OVC006
      TEMPO 1906/1910 5SM BR
     FM191800 15007KT P6SM FEW010 BKN025=



000
FTUS44 KLUB 182300
TAFCDS
TAF
KCDS 182320Z 1900/1924 06006KT P6SM OVC015
     FM190500 09006KT P6SM OVC005
     FM191800 13005KT P6SM OVC012=



000
FTUS44 KLUB 182300
TAFLBB
TAF
KLBB 182320Z 1900/1924 07006KT P6SM BKN120 BKN250
     FM190500 08008KT 5SM BR OVC005 PROB30 1909/1915 P6SM -SHRA
     FM191800 15007KT P6SM FEW010 BKN025=



000
FTUS44 KLUB 181700
TAFLBB
TAF
KLBB 181726Z 1818/1918 04008KT P6SM SCT150 BKN250
     FM190500 08008KT 5SM BR OVC007 PROB30 1909/1915 -SHRA=



000
FTUS44 KLUB 181700
TAFCDS
TAF
KCDS 181726Z 1818/1918 06006KT P6SM OVC012=



000
FTUS44 KLUB 181500 AAA
TAFCDS
TAF AMD
KCDS 181536Z 1816/1912 04006KT P6SM OVC010=



000
FTUS44 KLUB 181100
TAFLBB
TAF
KLBB 181120Z 1812/1912 27007KT P6SM SKC
     FM182100 04006KT P6SM SCT100 BKN150
     FM190100 07008KT P6SM FEW010 BKN060
     FM190800 09009KT 6SM BR OVC010=



000
FTUS44 KLUB 181100
TAFCDS
TAF
KCDS 181120Z 1812/1912 25003KT 3SM BR OVC002
     FM181500 02007KT P6SM OVC025
     FM190300 06007KT 6SM BR OVC010=



000
FTUS44 KLUB 180700 AAA
TAFLBB
TAF AMD
KLBB 180706Z 1807/1906 17006KT P6SM SKC
      TEMPO 1807/1809 1SM BR OVC004
     FM180900 30009KT P6SM SCT200
     FM182100 04006KT P6SM SCT100 BKN150
     FM190300 07008KT P6SM FEW010 BKN060=



000
FTUS44 KLUB 180600 AAA
TAFCDS
TAF AMD
KCDS 180610Z 1806/1906 13009KT 1SM BR OVC002
      TEMPO 1806/1809 1/2SM FG
     FM181500 02007KT P6SM OVC025
     FM190300 06007KT P6SM OVC015=



000
FTUS44 KLUB 180500
TAFCDS
TAF
KCDS 180523Z 1806/1906 13009KT 1SM BR OVC002
     FM181500 02007KT P6SM OVC025
     FM190300 06007KT P6SM OVC015=



000
FTUS44 KLUB 180500
TAFLBB
TAF
KLBB 180523Z 1806/1906 17006KT 6SM BR SCT003
      TEMPO 1807/1809 5SM BR BKN003
     FM180900 30009KT P6SM SCT200
     FM182100 04006KT P6SM SCT100 BKN150
     FM190300 07008KT P6SM FEW010 BKN060=



000
FTUS44 KLUB 180300 AAB
TAFLBB
TAF AMD
KLBB 180357Z 1804/1824 16007KT 6SM BR SCT003
      TEMPO 1806/1809 4SM BR BKN003
     FM180900 30009KT P6SM SCT200
     FM182100 04006KT P6SM BKN180=



000
FTUS44 KLUB 180300 AAB
TAFLBB
TAF AMD
KLBB 180357Z 1804/1824 16007KT 6SM BR SCT003
      TEMPO 1806/1809 4SM BR BKN003
     FM180900 30009KT P6SM SCT200
     FM182100 04006KT P6SM BKN180=



000
FTUS44 KLUB 180200 AAA
TAFCDS
TAF AMD
KCDS 180256Z 1803/1824 13009KT 1SM BR OVC002
      TEMPO 1803/1804 1/2SM FG
     FM181500 02007KT P6SM OVC025=



000
FTUS44 KLUB 180000 AAA
TAFLBB
TAF AMD
KLBB 180051Z 1801/1824 16007KT P6SM BKN006 BKN060
      TEMPO 1804/1807 5SM BR OVC010
     FM180800 30009KT P6SM SCT200
     FM182100 04006KT P6SM BKN180=



000
FTUS44 KLUB 172300
TAFCDS
TAF
KCDS 172320Z 1800/1824 13009KT 5SM BR OVC005
     FM181500 02007KT P6SM OVC025=



000
FTUS44 KLUB 172300
TAFLBB
TAF
KLBB 172320Z 1800/1824 13011KT P6SM FEW030 BKN050
     FM180100 18007KT P6SM SCT050
      TEMPO 1804/1807 5SM BR OVC010
     FM180800 30009KT P6SM SCT200
     FM182100 04006KT P6SM BKN180=



000
FTUS44 KLUB 172100 AAA
TAFCDS
TAF AMD
KCDS 172119Z 1721/1818 13009KT P6SM OVC009
     FM181300 01007KT P6SM OVC035=



000
FTUS44 KLUB 171700
TAFLBB
TAF
KLBB 171730Z 1718/1818 15011KT P6SM OVC025
     FM172200 18011KT P6SM SCT050
     FM180800 27009KT P6SM SCT250=



000
FTUS44 KLUB 171700
TAFCDS
TAF
KCDS 171730Z 1718/1818 15009KT P6SM OVC035
      TEMPO 1718/1719 -TSRA OVC035CB
     FM181300 01007KT P6SM OVC035=



000
FTUS44 KLUB 171100
TAFLBB
TAF
KLBB 171122Z 1712/1812 12007KT P6SM OVC028
     FM172000 18011KT P6SM SCT040
     FM180800 27010KT P6SM SCT100=



000
FTUS44 KLUB 171100
TAFCDS
TAF
KCDS 171122Z 1712/1812 12005KT P6SM VCSH OVC050
     FM171800 14009KT P6SM OVC030=



    US Dept of Commerce
    National Oceanic and Atmospheric Administration
    National Weather Service
    1325 East West Highway
    Silver Spring, MD 20910
    Page Author: NWS Internet Services Team
Disclaimer
Information Quality
Credits
Glossary
Privacy Policy
Freedom of Information Act (FOIA)
About Us
Career Opportunities